This is the latest recevied weather packets stored in our database for station/object DK4DAX-2. If no packets are shown the sender has not sent any weather packets the latest 10 day(s).
| Time | Temp. | Humidity | Pressure | Rain* | Wind** | Luminosity | Snow |
|---|---|---|---|---|---|---|---|
| 1787775303 | 23.33° C | 57% | 1012.1 hPa | 0 mm | - | - | - |
| 1787774403 | 23.89° C | 56% | 1012 hPa | 0 mm | - | - | - |
| 1787773504 | 23.89° C | 55% | 1011.8 hPa | 0 mm | - | - | - |
| 1787772604 | 23.89° C | 54% | 1012 hPa | 0 mm | - | - | - |
| 1787771703 | 24.44° C | 53% | 1011.7 hPa | 0 mm | - | - | - |
| 1787770803 | 25° C | 51% | 1011.7 hPa | 0 mm | - | - | - |
| 1787769904 | 25° C | 51% | 1011.6 hPa | 0 mm | - | - | - |
| 1787769004 | 25.56° C | 49% | 1011.4 hPa | 0 mm | - | - | - |
| 1787768103 | 25.56° C | 48% | 1011.5 hPa | 0 mm | - | - | - |
| 1787767204 | 26.11° C | 46% | 1011.4 hPa | 0 mm | - | - | - |
| 1787766303 | 26.67° C | 45% | 1011.5 hPa | 0 mm | - | - | - |
| 1787765403 | 26.67° C | 44% | 1011.2 hPa | 0 mm | - | - | - |
| 1787764503 | 26.67° C | 43% | 1011.2 hPa | 0 mm | - | - | - |
| 1787763604 | 27.22° C | 41% | 1011 hPa | 0 mm | - | - | - |
| 1787762703 | 27.22° C | 41% | 1011.2 hPa | 0 mm | - | - | - |
| 1787761803 | 27.22° C | 40% | 1011.3 hPa | 0 mm | - | - | - |
| 1787760903 | 27.78° C | 39% | 1011.6 hPa | 0 mm | - | - | - |
| 1787760004 | 28.33° C | 40% | 1011.5 hPa | 0 mm | - | - | - |
| 1787759103 | 28.33° C | 40% | 1011.7 hPa | 0 mm | - | - | - |
| 1787758203 | 28.33° C | 38% | 1011.7 hPa | 0 mm | - | - | - |
| 1787757304 | 28.33° C | 38% | 1011.7 hPa | 0 mm | - | - | - |
| 1787756403 | 28.89° C | 35% | 1011.9 hPa | 0 mm | - | - | - |
| 1787755503 | 28.89° C | 35% | 1012 hPa | 0 mm | - | - | - |
| 1787754604 | 31.11° C | 31% | 1012.2 hPa | 0 mm | - | - | - |
| 1787753704 | 34.44° C | 27% | 1012.2 hPa | 0 mm | - | - | - |
* Rain latest hour (hover to see other rain measurements)
** Current wind speed in m/s (hover to see current wind gust speed)